createdAt,value
2017-11-25T00:01:35.146Z,100479.98
2017-11-25T00:04:02.759Z,100469.70
2017-11-25T00:06:30.386Z,100471.06
2017-11-25T00:08:58.006Z,100470.20
2017-11-25T00:11:25.703Z,100452.25
2017-11-25T00:13:53.323Z,100450.39
2017-11-25T00:16:21.002Z,100455.73
2017-11-25T00:18:48.616Z,100444.83
2017-11-25T00:21:16.350Z,100446.06
2017-11-25T00:23:43.972Z,100447.42
2017-11-25T00:26:11.669Z,100432.94
2017-11-25T00:28:39.293Z,100422.60
2017-11-25T00:31:06.995Z,100419.83
2017-11-25T00:33:34.626Z,100415.31
2017-11-25T00:36:02.342Z,100414.01
2017-11-25T00:38:29.996Z,100412.28
2017-11-25T00:40:57.658Z,100401.33
2017-11-25T00:43:25.327Z,100404.10
2017-11-25T00:45:53.028Z,100401.25
2017-11-25T00:48:20.668Z,100403.00
2017-11-25T00:50:48.431Z,100403.18
2017-11-25T00:53:16.179Z,100402.92
2017-11-25T00:55:43.850Z,100406.00
2017-11-25T00:58:11.480Z,100408.95
2017-11-25T01:00:39.163Z,100404.59
2017-11-25T01:03:06.864Z,100397.66
2017-11-25T01:05:34.543Z,100405.55
2017-11-25T01:08:02.163Z,100405.06
2017-11-25T01:10:29.798Z,100418.62
2017-11-25T01:12:57.400Z,100410.28
2017-11-25T01:15:25.038Z,100413.28
2017-11-25T01:17:52.694Z,100417.52
2017-11-25T01:20:20.444Z,100424.86
2017-11-25T01:22:48.155Z,100426.30
2017-11-25T01:25:15.851Z,100429.42
2017-11-25T01:27:43.518Z,100423.55
2017-11-25T01:30:11.204Z,100422.06
2017-11-25T01:32:38.935Z,100418.70
2017-11-25T01:35:06.594Z,100418.20
2017-11-25T01:37:34.257Z,100430.72
2017-11-25T01:40:01.944Z,100439.19
2017-11-25T01:42:29.598Z,100443.92
2017-11-25T01:44:57.279Z,100424.69
2017-11-25T01:47:24.919Z,100421.52
2017-11-25T01:49:52.603Z,100418.31
2017-11-25T01:52:20.255Z,100411.48
2017-11-25T01:54:47.937Z,100424.50
2017-11-25T01:57:15.565Z,100421.80
2017-11-25T01:59:43.249Z,100410.59
2017-11-25T02:02:10.899Z,100401.47
2017-11-25T02:04:38.581Z,100397.73
2017-11-25T02:07:06.211Z,100394.46
2017-11-25T02:09:33.874Z,100375.73
2017-11-25T02:12:01.527Z,100356.70
2017-11-25T02:14:29.184Z,100348.23
2017-11-25T02:16:56.813Z,100337.02
2017-11-25T02:19:24.472Z,100345.92
2017-11-25T02:21:52.163Z,100351.88
2017-11-25T02:24:19.853Z,100336.49
2017-11-25T02:26:47.495Z,100337.32
2017-11-25T02:29:15.194Z,100332.41
2017-11-25T02:31:42.829Z,100335.20
2017-11-25T02:34:10.516Z,100340.23
2017-11-25T02:36:38.163Z,100337.88
2017-11-25T02:39:05.837Z,100335.50
2017-11-25T02:41:33.498Z,100331.16
2017-11-25T02:44:01.175Z,100338.39
2017-11-25T02:46:28.832Z,100335.06
2017-11-25T02:48:56.507Z,100334.53
2017-11-25T02:51:24.157Z,100334.16
2017-11-25T02:53:51.800Z,100337.28
2017-11-25T02:56:19.476Z,100323.11
2017-11-25T02:58:47.099Z,100327.25
2017-11-25T03:01:14.770Z,100333.94
2017-11-25T03:03:42.494Z,100330.92
2017-11-25T03:06:10.270Z,100319.91
2017-11-25T03:08:37.977Z,100319.86
2017-11-25T03:11:05.630Z,100328.50
2017-11-25T03:13:33.336Z,100331.13
2017-11-25T03:16:00.984Z,100322.35
2017-11-25T03:18:28.614Z,100327.67
2017-11-25T03:20:56.287Z,100336.44
2017-11-25T03:23:24.027Z,100337.70
2017-11-25T03:25:51.689Z,100336.53
2017-11-25T03:28:19.346Z,100332.37
2017-11-25T03:30:47.056Z,100332.72
2017-11-25T03:33:14.705Z,100318.99
2017-11-25T03:35:42.386Z,100319.95
2017-11-25T03:38:10.066Z,100315.91
2017-11-25T03:40:37.763Z,100314.50
2017-11-25T03:43:05.394Z,100315.13
2017-11-25T03:45:33.059Z,100314.54
2017-11-25T03:48:00.707Z,100318.62
2017-11-25T03:50:28.390Z,100319.56
2017-11-25T03:52:56.030Z,100313.62
2017-11-25T03:55:23.703Z,100313.75
2017-11-25T03:57:51.343Z,100309.68
2017-11-25T04:00:18.995Z,100320.03
2017-11-25T04:02:46.623Z,100323.23
2017-11-25T04:05:14.309Z,100325.03
2017-11-25T04:07:41.962Z,100311.85
2017-11-25T04:10:09.646Z,100312.59
2017-11-25T04:12:37.283Z,100318.79
2017-11-25T04:15:04.994Z,100312.22
2017-11-25T04:17:32.659Z,100308.16
2017-11-25T04:20:00.349Z,100304.32
2017-11-25T04:22:28.006Z,100303.86
2017-11-25T04:24:55.665Z,100297.03
2017-11-25T04:27:23.310Z,100293.88
2017-11-25T04:29:50.981Z,100297.55
2017-11-25T04:32:18.641Z,100292.69
2017-11-25T04:34:46.313Z,100287.78
2017-11-25T04:37:13.969Z,100289.86
2017-11-25T04:39:41.781Z,100293.05
2017-11-25T04:42:09.440Z,100288.91
2017-11-25T04:44:37.141Z,100282.73
2017-11-25T04:47:04.782Z,100273.97
2017-11-25T04:49:32.458Z,100266.95
2017-11-25T04:52:00.107Z,100269.40
2017-11-25T04:54:27.783Z,100284.33
2017-11-25T04:56:55.425Z,100279.67
2017-11-25T04:59:23.097Z,100281.28
2017-11-25T05:01:50.738Z,100279.08
2017-11-25T05:04:18.436Z,100290.13
2017-11-25T05:06:46.069Z,100288.66
2017-11-25T05:09:13.742Z,100280.77
2017-11-25T05:11:41.390Z,100284.37
2017-11-25T05:14:09.047Z,100277.22
2017-11-25T05:16:36.696Z,100279.17
2017-11-25T05:19:04.388Z,100281.75
2017-11-25T05:21:32.030Z,100286.03
2017-11-25T05:23:59.717Z,100290.24
2017-11-25T05:26:27.347Z,100293.23
2017-11-25T05:28:55.017Z,100302.78
2017-11-25T05:31:22.662Z,100297.20
2017-11-25T05:33:50.295Z,100290.31
2017-11-25T05:36:17.957Z,100298.79
2017-11-25T05:38:45.586Z,100300.54
2017-11-25T05:41:13.265Z,100304.33
2017-11-25T05:43:40.910Z,100301.95
2017-11-25T05:46:08.583Z,100300.42
2017-11-25T05:48:36.244Z,100301.20
2017-11-25T05:51:03.926Z,100302.66
2017-11-25T05:53:31.640Z,100306.20
2017-11-25T05:55:59.314Z,100314.88
2017-11-25T05:58:26.962Z,100316.50
2017-11-25T06:00:54.606Z,100317.70
2017-11-25T06:03:22.281Z,100312.02
2017-11-25T06:05:49.954Z,100322.44
2017-11-25T06:08:17.598Z,100331.00
2017-11-25T06:10:45.321Z,100318.25
2017-11-25T06:13:12.969Z,100313.80
2017-11-25T06:15:40.645Z,100314.55
2017-11-25T06:18:08.302Z,100316.34
2017-11-25T06:20:36.037Z,100320.91
2017-11-25T06:23:03.689Z,100317.54
2017-11-25T06:25:31.414Z,100316.75
2017-11-25T06:27:59.038Z,100321.00
2017-11-25T06:30:26.731Z,100319.03
2017-11-25T06:32:54.378Z,100324.56
2017-11-25T06:35:22.050Z,100325.52
2017-11-25T06:37:49.743Z,100347.43
2017-11-25T06:40:17.494Z,100351.75
2017-11-25T06:42:45.142Z,100353.00
2017-11-25T06:45:12.831Z,100364.42
2017-11-25T06:47:40.473Z,100370.95
2017-11-25T06:50:08.143Z,100365.91
2017-11-25T06:52:35.792Z,100362.84
2017-11-25T06:55:03.490Z,100371.23
2017-11-25T06:57:31.139Z,100373.93
2017-11-25T06:59:58.807Z,100372.48
2017-11-25T07:02:26.451Z,100378.63
2017-11-25T07:04:54.175Z,100375.36
2017-11-25T07:07:21.824Z,100383.13
2017-11-25T07:09:49.502Z,100387.03
2017-11-25T07:12:17.143Z,100398.30
2017-11-25T07:14:44.828Z,100407.20
2017-11-25T07:17:12.752Z,100400.09
2017-11-25T07:19:40.469Z,100407.33
2017-11-25T07:22:08.099Z,100407.33
2017-11-25T07:24:35.791Z,100412.56
2017-11-25T07:27:03.435Z,100411.44
2017-11-25T07:29:31.125Z,100412.10
2017-11-25T07:31:58.789Z,100416.93
2017-11-25T07:34:26.570Z,100412.81
2017-11-25T07:36:54.218Z,100417.42
2017-11-25T07:39:21.885Z,100429.06
2017-11-25T07:41:49.535Z,100433.13
2017-11-25T07:44:17.283Z,100431.42
2017-11-25T07:46:44.934Z,100442.38
2017-11-25T07:49:12.614Z,100443.59
2017-11-25T07:51:40.271Z,100445.12
2017-11-25T07:54:07.990Z,100448.23
2017-11-25T07:56:35.657Z,100457.66
2017-11-25T07:59:03.335Z,100462.17
2017-11-25T08:01:31.131Z,100462.39
2017-11-25T08:03:58.819Z,100468.11
2017-11-25T08:06:26.543Z,100470.34
2017-11-25T08:08:54.220Z,100483.06
2017-11-25T08:11:21.900Z,100484.92
2017-11-25T08:13:49.625Z,100484.47
2017-11-25T08:16:17.235Z,100485.17
2017-11-25T08:18:44.899Z,100482.44
2017-11-25T08:21:12.558Z,100488.30
2017-11-25T08:23:40.218Z,100489.88
2017-11-25T08:26:08.903Z,100491.63
2017-11-25T08:28:36.630Z,100496.95
2017-11-25T08:31:04.467Z,100495.97
2017-11-25T08:33:32.128Z,100500.40
2017-11-25T08:35:59.731Z,100500.62
2017-11-25T08:38:27.397Z,100504.46
2017-11-25T08:40:55.013Z,100508.75
2017-11-25T08:43:22.677Z,100514.05
2017-11-25T08:45:50.362Z,100520.77
2017-11-25T08:48:18.050Z,100524.03
2017-11-25T08:50:45.763Z,100518.16
2017-11-25T08:53:13.398Z,100528.92
2017-11-25T08:55:41.007Z,100527.23
2017-11-25T08:58:08.665Z,100531.59
2017-11-25T09:00:36.327Z,100532.73
2017-11-25T09:03:04.126Z,100530.31
2017-11-25T09:05:31.878Z,100531.65
2017-11-25T09:07:59.475Z,100533.46
2017-11-25T09:10:27.109Z,100532.93
2017-11-25T09:12:54.793Z,100538.59
2017-11-25T09:15:22.429Z,100540.02
2017-11-25T09:17:50.054Z,100546.42
2017-11-25T09:20:17.684Z,100544.08
2017-11-25T09:22:45.307Z,100548.50
2017-11-25T09:25:12.948Z,100546.83
2017-11-25T09:27:40.596Z,100549.13
2017-11-25T09:30:08.222Z,100552.95
2017-11-25T09:32:35.859Z,100549.52
2017-11-25T09:35:03.452Z,100546.38
2017-11-25T09:37:31.086Z,100550.31
2017-11-25T09:39:58.680Z,100551.94
2017-11-25T09:42:26.320Z,100555.01
2017-11-25T09:44:53.922Z,100551.80
2017-11-25T09:47:21.565Z,100545.38
2017-11-25T09:49:49.177Z,100543.48
2017-11-25T09:52:16.816Z,100547.47
2017-11-25T09:54:44.441Z,100557.74
2017-11-25T09:57:12.055Z,100553.75
2017-11-25T09:59:39.762Z,100561.73
2017-11-25T10:02:07.403Z,100558.64
2017-11-25T10:04:35.071Z,100568.36
2017-11-25T10:07:02.692Z,100564.17
2017-11-25T10:09:30.530Z,100567.92
2017-11-25T10:11:58.161Z,100563.95
2017-11-25T10:14:25.816Z,100568.20
2017-11-25T10:16:53.428Z,100570.80
2017-11-25T10:19:21.118Z,100578.27
2017-11-25T10:21:48.774Z,100574.54
2017-11-25T10:24:16.415Z,100574.59
2017-11-25T10:26:44.010Z,100576.48
2017-11-25T10:29:11.825Z,100581.11
2017-11-25T10:31:39.426Z,100579.09
2017-11-25T10:34:07.080Z,100578.59
2017-11-25T10:36:34.679Z,100581.58
2017-11-25T10:39:02.306Z,100584.26
2017-11-25T10:41:30.023Z,100584.66
2017-11-25T10:43:57.658Z,100585.20
2017-11-25T10:46:25.289Z,100592.36
2017-11-25T10:48:53.063Z,100596.71
2017-11-25T10:51:20.671Z,100598.39
2017-11-25T10:53:48.327Z,100598.62
2017-11-25T10:56:15.961Z,100598.09
2017-11-25T10:58:43.587Z,100597.17
2017-11-25T11:01:11.422Z,100605.13
2017-11-25T11:03:39.330Z,100606.93
2017-11-25T11:06:07.047Z,100603.42
2017-11-25T11:08:34.681Z,100607.50
2017-11-25T11:11:02.347Z,100606.54
2017-11-25T11:13:30.139Z,100606.27
2017-11-25T11:15:57.880Z,100610.27
2017-11-25T11:18:25.519Z,100611.42
2017-11-25T11:20:53.131Z,100615.66
2017-11-25T11:23:20.778Z,100617.23
2017-11-25T11:25:48.408Z,100613.21
2017-11-25T11:28:16.084Z,100617.52
2017-11-25T11:30:43.686Z,100624.31
2017-11-25T11:33:11.561Z,100622.91
2017-11-25T11:35:39.318Z,100631.31
2017-11-25T11:38:06.954Z,100629.45
2017-11-25T11:40:34.567Z,100633.49
2017-11-25T11:43:02.230Z,100642.33
2017-11-25T11:45:29.840Z,100636.70
2017-11-25T11:47:57.496Z,100643.02
2017-11-25T11:50:25.096Z,100644.45
2017-11-25T11:52:52.732Z,100637.88
2017-11-25T11:55:20.334Z,100633.77
2017-11-25T11:57:48.077Z,100638.33
2017-11-25T12:00:15.663Z,100640.24
2017-11-25T12:02:43.287Z,100642.88
2017-11-25T12:05:10.875Z,100643.67
2017-11-25T12:07:38.521Z,100649.93
2017-11-25T12:10:06.147Z,100651.25
2017-11-25T12:12:33.794Z,100654.41
2017-11-25T12:15:01.401Z,100654.34
2017-11-25T12:17:29.207Z,100660.61
2017-11-25T12:19:56.830Z,100660.56
2017-11-25T12:22:24.479Z,100667.48
2017-11-25T12:24:52.078Z,100663.78
2017-11-25T12:27:19.710Z,100666.89
2017-11-25T12:29:47.966Z,100663.38
2017-11-25T12:32:15.627Z,100654.53
2017-11-25T12:34:43.242Z,100663.62
2017-11-25T12:37:10.899Z,100660.83
2017-11-25T12:39:38.508Z,100658.64
2017-11-25T12:42:06.159Z,100666.51
2017-11-25T12:44:33.765Z,100672.95
2017-11-25T12:47:01.515Z,100676.12
2017-11-25T12:49:29.206Z,100670.45
2017-11-25T12:51:56.866Z,100674.24
2017-11-25T12:54:24.474Z,100671.53
2017-11-25T12:56:52.118Z,100676.83
2017-11-25T12:59:19.714Z,100683.71
2017-11-25T13:01:47.343Z,100678.97
2017-11-25T13:04:14.967Z,100676.30
2017-11-25T15:55:18.672Z,100857.95
2017-11-25T15:57:46.557Z,100863.86
2017-11-25T16:00:15.185Z,100855.58
2017-11-25T16:02:42.829Z,100865.81
2017-11-25T16:05:10.649Z,100867.09
2017-11-25T16:07:38.278Z,100865.94
2017-11-25T16:10:05.937Z,100872.17
2017-11-25T16:12:33.591Z,100876.46
2017-11-25T16:15:01.206Z,100882.88
2017-11-25T16:17:28.872Z,100883.94
2017-11-25T16:19:56.473Z,100891.80
2017-11-25T16:22:24.201Z,100897.06
2017-11-25T16:24:51.874Z,100903.71
2017-11-25T16:27:19.524Z,100899.25
2017-11-25T16:29:47.256Z,100909.72
2017-11-25T16:32:14.900Z,100911.05
2017-11-25T16:34:42.511Z,100911.76
2017-11-25T16:37:10.160Z,100914.23
2017-11-25T16:39:37.788Z,100906.79
2017-11-25T16:42:05.400Z,100906.26
2017-11-25T16:44:33.140Z,100912.31
2017-11-25T16:47:00.770Z,100923.42
2017-11-25T16:49:28.389Z,100921.48
2017-11-25T16:51:55.986Z,100923.95
2017-11-25T16:54:23.636Z,100929.91
2017-11-25T16:56:51.262Z,100934.49
2017-11-25T16:59:18.879Z,100931.78
2017-11-25T17:01:46.543Z,100937.31
2017-11-25T17:04:14.192Z,100943.41
2017-11-25T17:06:42.060Z,100940.45
2017-11-25T17:09:09.696Z,100942.98
2017-11-25T17:11:37.273Z,100949.63
2017-11-25T17:14:05.108Z,100951.06
2017-11-25T17:16:32.757Z,100951.23
2017-11-25T17:19:00.434Z,100952.05
2017-11-25T17:21:28.062Z,100956.88
2017-11-25T17:23:55.672Z,100961.09
2017-11-25T17:26:23.308Z,100966.28
2017-11-25T17:28:50.905Z,100973.77
2017-11-25T17:31:18.583Z,100979.32
2017-11-25T17:33:46.376Z,100989.43
2017-11-25T17:36:13.995Z,100984.47
2017-11-25T17:38:41.625Z,100990.59
2017-11-25T17:41:09.383Z,100992.38
2017-11-25T17:43:37.072Z,100998.35
2017-11-25T17:46:04.729Z,100994.89
2017-11-25T17:48:32.312Z,100998.08
2017-11-25T17:51:00.026Z,101001.00
2017-11-25T17:53:27.703Z,101009.05
2017-11-25T17:55:55.299Z,101017.17
2017-11-25T17:58:22.919Z,101019.42
2017-11-25T18:00:50.532Z,101020.90
2017-11-25T18:03:18.145Z,101027.66
2017-11-25T18:05:45.831Z,101026.55
2017-11-25T18:08:13.472Z,101034.03
2017-11-25T18:10:41.078Z,101034.48
2017-11-25T18:13:08.704Z,101041.02
2017-11-25T18:15:36.313Z,101040.55
2017-11-25T18:18:03.950Z,101042.27
2017-11-25T18:20:31.593Z,101047.99
2017-11-25T18:22:59.231Z,101050.56
2017-11-25T18:25:26.828Z,101056.64
2017-11-25T18:27:54.517Z,101061.10
2017-11-25T18:30:22.138Z,101063.65
2017-11-25T18:32:49.763Z,101072.14
2017-11-25T18:35:17.363Z,101076.20
2017-11-25T18:37:45.004Z,101072.46
2017-11-25T18:40:12.833Z,101071.50
2017-11-25T18:42:40.495Z,101073.65
2017-11-25T18:45:08.108Z,101071.47
2017-11-25T18:47:35.769Z,101080.61
2017-11-25T18:50:03.380Z,101080.75
2017-11-25T18:52:30.962Z,101085.79
2017-11-25T18:54:58.668Z,101085.18
2017-11-25T18:57:26.337Z,101085.18
2017-11-25T18:59:54.001Z,101088.28
2017-11-25T19:02:21.687Z,101088.00
2017-11-25T19:04:49.309Z,101093.73
2017-11-25T19:07:17.048Z,101096.94
2017-11-25T19:09:44.713Z,101096.45
2017-11-25T19:12:12.394Z,101107.53
2017-11-25T19:14:40.065Z,101101.03
2017-11-25T19:17:07.692Z,101103.02
2017-11-25T19:19:35.316Z,101103.69
2017-11-25T19:22:02.957Z,101114.38
2017-11-25T19:24:30.574Z,101115.10
2017-11-25T19:26:58.185Z,101113.30
2017-11-25T19:29:25.808Z,101111.72
2017-11-25T19:31:53.493Z,101116.52
2017-11-25T19:34:21.207Z,101124.81
2017-11-25T19:36:48.869Z,101132.13
2017-11-25T19:39:16.546Z,101125.16
2017-11-25T19:41:44.181Z,101134.52
2017-11-25T19:44:11.937Z,101133.25
2017-11-25T19:46:39.550Z,101136.30
2017-11-25T19:49:07.189Z,101137.91
2017-11-25T19:51:34.796Z,101138.66
2017-11-25T19:54:02.411Z,101141.41
2017-11-25T19:56:29.997Z,101147.85
2017-11-25T19:58:57.717Z,101147.30
2017-11-25T20:01:25.329Z,101143.44
2017-11-25T20:03:53.093Z,101149.85
2017-11-25T20:06:20.704Z,101152.18
2017-11-25T20:08:48.316Z,101150.14
2017-11-25T20:11:15.913Z,101153.83
2017-11-25T20:13:43.550Z,101159.39
2017-11-25T20:16:11.143Z,101169.42
2017-11-25T20:18:38.788Z,101171.23
2017-11-25T20:21:06.402Z,101175.12
2017-11-25T20:23:34.146Z,101182.49
2017-11-25T20:26:01.784Z,101186.09
2017-11-25T20:28:29.565Z,101184.77
2017-11-25T20:30:57.202Z,101183.00
2017-11-25T20:33:24.797Z,101179.95
2017-11-25T20:35:52.519Z,101181.51
2017-11-25T20:38:20.137Z,101184.88
2017-11-25T20:40:47.756Z,101185.09
2017-11-25T20:43:15.390Z,101186.15
2017-11-25T20:45:43.034Z,101187.48
2017-11-25T20:48:10.711Z,101193.63
2017-11-25T20:50:38.371Z,101195.45
2017-11-25T20:53:06.009Z,101200.55
2017-11-25T20:55:33.615Z,101201.58
2017-11-25T20:58:01.261Z,101201.88
2017-11-25T21:00:28.890Z,101204.72
2017-11-25T21:02:56.553Z,101198.39
2017-11-25T21:05:24.184Z,101202.06
2017-11-25T21:07:51.882Z,101199.41
2017-11-25T21:10:19.627Z,101200.94
2017-11-25T21:12:47.271Z,101199.50
2017-11-25T21:15:14.906Z,101193.88
2017-11-25T21:17:42.496Z,101195.52
2017-11-25T21:20:10.238Z,101194.91
2017-11-25T21:22:37.864Z,101197.55
2017-11-25T21:25:05.484Z,101204.88
2017-11-25T21:27:33.139Z,101211.71
2017-11-25T21:30:00.801Z,101207.31
2017-11-25T21:32:28.407Z,101209.37
2017-11-25T21:34:56.046Z,101210.37
2017-11-25T21:37:23.645Z,101217.73
2017-11-25T21:39:51.356Z,101224.36
2017-11-25T21:42:18.982Z,101224.77
2017-11-25T21:44:46.650Z,101228.95
2017-11-25T21:47:14.418Z,101235.27
2017-11-25T21:49:42.057Z,101227.41
2017-11-25T21:52:09.651Z,101228.41
2017-11-25T21:54:37.378Z,101235.44
2017-11-25T21:57:05.068Z,101238.70
2017-11-25T21:59:32.704Z,101246.09
2017-11-25T22:02:00.310Z,101242.34
2017-11-25T22:04:27.925Z,101239.08
2017-11-25T22:06:55.523Z,101242.78
2017-11-25T22:09:23.240Z,101245.83
2017-11-25T22:11:50.888Z,101250.13
2017-11-25T22:14:18.533Z,101242.28
2017-11-25T22:16:46.125Z,101245.78
2017-11-25T22:19:13.741Z,101241.59
2017-11-25T22:21:41.365Z,101243.30
2017-11-25T22:24:09.021Z,101240.63
2017-11-25T22:26:36.630Z,101245.23
2017-11-25T22:29:04.364Z,101245.66
2017-11-25T22:31:32.239Z,101246.91
2017-11-25T22:33:59.923Z,101240.27
2017-11-25T22:36:27.628Z,101251.66
2017-11-25T22:38:55.426Z,101252.97
2017-11-25T22:41:23.118Z,101263.06
2017-11-25T22:43:51.091Z,101254.81
2017-11-25T22:46:18.688Z,101262.78
2017-11-25T22:48:46.347Z,101273.87
2017-11-25T22:51:14.029Z,101268.45
2017-11-25T22:53:41.655Z,101279.08
2017-11-25T22:56:09.248Z,101284.06
2017-11-25T22:58:36.886Z,101277.27
2017-11-25T23:01:04.506Z,101279.39
2017-11-25T23:03:32.160Z,101289.00
2017-11-25T23:06:05.344Z,101288.89
2017-11-25T23:08:32.972Z,101285.22
2017-11-25T23:11:00.564Z,101288.67
2017-11-25T23:13:28.212Z,101283.05
2017-11-25T23:15:55.824Z,101283.04
2017-11-25T23:18:23.491Z,101284.91
2017-11-25T23:20:51.092Z,101282.26
2017-11-25T23:23:18.731Z,101280.63
2017-11-25T23:25:46.346Z,101270.01
2017-11-25T23:28:13.953Z,101273.69
2017-11-25T23:30:41.691Z,101276.77
2017-11-25T23:33:09.299Z,101282.80
2017-11-25T23:35:36.927Z,101283.06
2017-11-25T23:38:04.588Z,101285.83
2017-11-25T23:40:32.217Z,101279.91
2017-11-25T23:42:59.846Z,101286.33
2017-11-25T23:45:27.445Z,101284.39
2017-11-25T23:47:55.092Z,101287.67
2017-11-25T23:50:22.778Z,101279.09
2017-11-25T23:52:50.412Z,101280.31
2017-11-25T23:55:18.009Z,101279.72
2017-11-25T23:57:45.661Z,101284.92
